Riceville, Pennsylvania
Current Conditions -  °F | °C
As of 3:53 PM on Sunday 21 Dec 2014 (Local Time) from KGKJ Reporting Station
Haze Haze  
Wind Chill: 30°   Ceiling: 2100
Heat Index: 30°   Visibility: 5mi
Dew Point: 21°   Wind: 3mph
Humidity: 69%   Direction: 120°ESE
Pressure: 30.22"   Gusts: NA
Location:  41.78°N, 79.8°W
Report Text: KGKJ 212053Z AUTO 12003KT 5SM HZ OVC021 M01/M06 A3022 RMK AO2 SLP250 T10111061 56011 TSNO $
Loading
Personal Weather Stations






























Interactive Weather Map New forecast layout! Learn more

10-Day Weather Forecast

Advertisements
Track Severe Weather on mobile